createdAt,value
2018-07-08T00:01:13.155Z,15.74
2018-07-08T00:03:41.230Z,15.72
2018-07-08T00:06:09.271Z,15.69
2018-07-08T00:08:37.336Z,15.66
2018-07-08T00:11:05.428Z,15.61
2018-07-08T00:13:33.467Z,15.60
2018-07-08T00:16:01.528Z,15.58
2018-07-08T00:18:30.571Z,15.55
2018-07-08T00:20:58.680Z,15.50
2018-07-08T00:23:26.715Z,15.44
2018-07-08T00:25:54.866Z,15.43
2018-07-08T00:28:23.792Z,15.42
2018-07-08T00:30:51.835Z,15.38
2018-07-08T00:33:19.908Z,15.30
2018-07-08T00:35:47.943Z,15.24
2018-07-08T00:38:16.012Z,15.21
2018-07-08T00:40:44.084Z,15.16
2018-07-08T00:43:12.160Z,15.16
2018-07-08T00:45:40.232Z,15.14
2018-07-08T00:48:08.315Z,15.05
2018-07-08T00:50:36.627Z,14.96
2018-07-08T00:53:04.760Z,14.99
2018-07-08T00:55:32.836Z,14.96
2018-07-08T00:58:00.907Z,14.94
2018-07-08T01:00:31.580Z,14.89
2018-07-08T01:03:00.406Z,14.84
2018-07-08T01:05:28.993Z,14.78
2018-07-08T01:07:57.412Z,14.75
2018-07-08T01:10:25.484Z,14.73
2018-07-08T01:12:53.561Z,14.71
2018-07-08T01:15:21.627Z,14.68
2018-07-08T01:17:50.761Z,14.64
2018-07-08T01:20:18.900Z,14.55
2018-07-08T01:22:46.979Z,14.47
2018-07-08T01:25:16.128Z,14.40
2018-07-08T01:27:44.256Z,14.35
2018-07-08T01:30:13.544Z,14.35
2018-07-08T01:32:41.609Z,14.34
2018-07-08T01:35:09.681Z,14.35
2018-07-08T01:37:37.760Z,14.34
2018-07-08T01:40:06.500Z,14.31
2018-07-08T01:42:34.620Z,14.27
2018-07-08T01:45:02.716Z,14.25
2018-07-08T01:47:30.864Z,14.22
2018-07-08T01:49:58.968Z,14.18
2018-07-08T01:52:27.143Z,14.18
2018-07-08T01:54:55.816Z,14.17
2018-07-08T01:57:24.716Z,14.15
2018-07-08T01:59:52.987Z,14.13
2018-07-08T02:02:21.722Z,14.09
2018-07-08T02:04:50.708Z,14.08
2018-07-08T02:07:18.821Z,14.05
2018-07-08T02:09:47.400Z,14.01
2018-07-08T02:12:15.873Z,13.96
2018-07-08T02:14:44.452Z,13.92
2018-07-08T02:17:12.561Z,13.91
2018-07-08T02:19:40.837Z,13.85
2018-07-08T02:22:09.256Z,13.81
2018-07-08T02:24:37.350Z,13.80
2018-07-08T02:27:06.016Z,13.80
2018-07-08T02:29:34.658Z,13.76
2018-07-08T02:32:02.704Z,13.73
2018-07-08T02:34:30.994Z,13.67
2018-07-08T02:36:59.329Z,13.63
2018-07-08T02:39:27.905Z,13.59
2018-07-08T02:41:56.225Z,13.54
2018-07-08T02:44:24.360Z,13.54
2018-07-08T02:46:53.233Z,13.54
2018-07-08T02:49:21.699Z,13.55
2018-07-08T02:51:49.804Z,13.56
2018-07-08T02:54:18.132Z,13.56
2018-07-08T02:56:46.830Z,13.57
2018-07-08T02:59:14.940Z,13.57
2018-07-08T03:01:43.016Z,13.57
2018-07-08T03:04:11.092Z,13.57
2018-07-08T03:06:39.180Z,13.54
2018-07-08T03:09:08.372Z,13.52
2018-07-08T03:11:36.484Z,13.51
2018-07-08T03:14:04.708Z,13.52
2018-07-08T03:16:32.775Z,13.51
2018-07-08T03:19:01.028Z,13.52
2018-07-08T03:21:29.089Z,13.51
2018-07-08T03:23:57.211Z,13.51
2018-07-08T03:26:25.719Z,13.52
2018-07-08T03:28:54.033Z,13.38
2018-07-08T03:31:22.193Z,13.55
2018-07-08T03:33:56.944Z,13.57
2018-07-08T03:36:25.089Z,13.60
2018-07-08T03:38:53.297Z,13.62
2018-07-08T03:41:21.477Z,13.65
2018-07-08T03:43:49.764Z,13.64
2018-07-08T03:46:18.085Z,13.66
2018-07-08T03:48:46.376Z,13.69
2018-07-08T03:51:14.433Z,13.72
2018-07-08T03:53:42.532Z,13.75
2018-07-08T03:56:10.620Z,13.81
2018-07-08T03:58:40.690Z,13.83
2018-07-08T04:01:08.759Z,13.86
2018-07-08T04:03:37.388Z,13.89
2018-07-08T04:06:05.492Z,13.94
2018-07-08T04:08:33.560Z,14.02
2018-07-08T04:11:01.604Z,14.06
2018-07-08T04:13:29.686Z,14.12
2018-07-08T04:15:57.715Z,14.17
2018-07-08T04:18:25.775Z,14.20
2018-07-08T04:20:53.836Z,14.26
2018-07-08T04:23:21.892Z,14.33
2018-07-08T04:25:49.992Z,14.43
2018-07-08T04:28:18.294Z,14.57
2018-07-08T04:30:46.516Z,14.95
2018-07-08T04:33:14.701Z,15.78
2018-07-08T04:35:42.800Z,16.76
2018-07-08T04:38:10.986Z,17.61
2018-07-08T04:40:39.034Z,18.52
2018-07-08T04:43:07.103Z,19.10
2018-07-08T04:45:35.172Z,19.84
2018-07-08T04:48:03.252Z,20.65
2018-07-08T04:50:31.330Z,21.16
2018-07-08T04:52:59.413Z,21.74
2018-07-08T04:55:27.509Z,22.40
2018-07-08T04:57:55.580Z,22.88
2018-07-08T05:00:23.628Z,23.46
2018-07-08T05:02:51.688Z,23.81
2018-07-08T05:05:20.060Z,24.09
2018-07-08T05:07:48.121Z,24.42
2018-07-08T05:10:16.155Z,24.32
2018-07-08T05:12:44.487Z,24.59
2018-07-08T05:15:12.543Z,24.76
2018-07-08T05:17:40.728Z,24.93
2018-07-08T05:20:08.803Z,24.48
2018-07-08T05:22:36.848Z,24.29
2018-07-08T05:25:05.008Z,24.55
2018-07-08T05:27:33.103Z,24.78
2018-07-08T05:30:01.135Z,24.60
2018-07-08T05:32:29.231Z,23.74
2018-07-08T05:34:57.290Z,24.52
2018-07-08T05:37:25.327Z,25.13
2018-07-08T05:39:53.367Z,25.27
2018-07-08T05:42:21.653Z,25.50
2018-07-08T05:44:50.042Z,25.48
2018-07-08T05:47:18.360Z,26.19
2018-07-08T05:49:46.708Z,26.65
2018-07-08T05:52:20.487Z,26.76
2018-07-08T05:54:49.046Z,26.84
2018-07-08T05:57:17.458Z,26.34
2018-07-08T05:59:45.692Z,26.21
2018-07-08T06:02:14.308Z,26.16
2018-07-08T06:04:42.632Z,26.34
2018-07-08T06:07:10.615Z,26.61
2018-07-08T06:09:38.651Z,26.49
2018-07-08T06:12:08.108Z,26.41
2018-07-08T06:14:36.157Z,26.72
2018-07-08T06:17:04.212Z,27.16
2018-07-08T06:19:32.290Z,26.68
2018-07-08T06:22:00.470Z,26.22
2018-07-08T06:24:28.706Z,25.60
2018-07-08T06:26:56.772Z,25.55
2018-07-08T06:29:24.792Z,26.30
2018-07-08T06:31:52.864Z,26.98
2018-07-08T06:34:20.908Z,27.38
2018-07-08T06:36:48.978Z,27.22
2018-07-08T06:39:17.117Z,27.52
2018-07-08T06:41:45.141Z,26.70
2018-07-08T06:44:13.192Z,27.54
2018-07-08T06:46:41.261Z,27.69
2018-07-08T06:49:09.357Z,27.14
2018-07-08T06:51:37.423Z,26.68
2018-07-08T06:54:05.544Z,25.63
2018-07-08T06:56:33.597Z,23.93
2018-07-08T06:59:01.661Z,23.62
2018-07-08T07:01:29.851Z,23.61
2018-07-08T07:03:57.918Z,23.85
2018-07-08T07:06:25.987Z,24.59
2018-07-08T07:08:54.100Z,25.30
2018-07-08T07:11:23.023Z,26.26
2018-07-08T07:13:51.084Z,26.18
2018-07-08T07:16:19.137Z,26.75
2018-07-08T07:18:47.205Z,26.88
2018-07-08T07:21:15.419Z,26.90
2018-07-08T07:23:43.455Z,25.72
2018-07-08T07:26:12.751Z,25.44
2018-07-08T07:28:40.852Z,24.84
2018-07-08T07:31:08.872Z,25.06
2018-07-08T07:33:36.944Z,26.12
2018-07-08T07:36:05.185Z,27.11
2018-07-08T07:38:33.361Z,27.06
2018-07-08T07:41:01.451Z,27.23
2018-07-08T07:43:29.507Z,26.08
2018-07-08T07:45:57.919Z,25.91
2018-07-08T07:48:25.975Z,26.49
2018-07-08T07:50:54.055Z,27.38
2018-07-08T07:53:22.101Z,28.18
2018-07-08T07:55:50.158Z,28.38
2018-07-08T07:58:18.368Z,28.27
2018-07-08T08:00:46.419Z,28.09
2018-07-08T08:03:14.495Z,28.15
2018-07-08T08:05:42.568Z,28.17
2018-07-08T08:08:10.659Z,28.04
2018-07-08T08:10:39.394Z,27.96
2018-07-08T08:13:07.807Z,27.64
2018-07-08T08:15:35.849Z,27.54
2018-07-08T08:18:03.924Z,28.05
2018-07-08T08:20:31.972Z,28.05
2018-07-08T08:23:01.648Z,28.29
2018-07-08T08:25:29.688Z,27.99
2018-07-08T08:27:57.796Z,27.46
2018-07-08T08:30:26.795Z,27.18
2018-07-08T08:32:55.660Z,27.47
2018-07-08T08:35:24.502Z,27.09
2018-07-08T08:37:54.533Z,27.01
2018-07-08T08:40:25.876Z,26.89
2018-07-08T08:42:54.371Z,26.30
2018-07-08T08:45:23.720Z,26.76
2018-07-08T08:47:51.774Z,26.96
2018-07-08T08:50:19.864Z,27.21
2018-07-08T08:52:47.945Z,27.59
2018-07-08T08:55:16.029Z,27.15
2018-07-08T08:57:44.858Z,26.95
2018-07-08T09:00:16.843Z,25.79
2018-07-08T09:02:47.443Z,25.42
2018-07-08T09:05:15.721Z,25.60
2018-07-08T09:07:44.159Z,25.61
2018-07-08T09:10:12.312Z,25.66
2018-07-08T09:12:44.089Z,25.86
2018-07-08T09:15:13.595Z,25.87
2018-07-08T09:17:42.834Z,25.76
2018-07-08T09:20:10.971Z,25.03
2018-07-08T09:22:39.050Z,24.94
2018-07-08T09:25:07.557Z,25.53
2018-07-08T09:27:35.838Z,25.53
2018-07-08T09:30:04.983Z,26.03
2018-07-08T09:32:34.022Z,26.41
2018-07-08T09:35:02.199Z,26.43
2018-07-08T09:37:30.808Z,26.68
2018-07-08T09:39:58.947Z,26.91
2018-07-08T09:42:27.492Z,26.49
2018-07-08T09:44:55.801Z,27.10
2018-07-08T09:47:25.597Z,27.42
2018-07-08T09:49:53.891Z,27.01
2018-07-08T09:52:22.021Z,26.59
2018-07-08T12:27:40.627Z,23.14
2018-07-08T12:30:08.727Z,23.29
2018-07-08T12:32:36.836Z,23.32
2018-07-08T12:35:04.908Z,23.42
2018-07-08T12:37:33.000Z,23.60
2018-07-08T12:40:01.045Z,23.87
2018-07-08T12:42:29.129Z,24.06
2018-07-08T12:44:57.773Z,24.19
2018-07-08T12:47:26.111Z,24.21
2018-07-08T12:49:54.938Z,24.16
2018-07-08T12:52:24.771Z,24.09
2018-07-08T12:54:53.499Z,24.32
2018-07-08T12:57:22.791Z,24.23
2018-07-08T12:59:51.564Z,24.35
2018-07-08T13:02:19.592Z,24.50
2018-07-08T13:04:47.716Z,24.55
2018-07-08T13:07:16.331Z,24.26
2018-07-08T13:09:44.805Z,24.43
2018-07-08T13:12:12.843Z,24.73
2018-07-08T13:14:40.868Z,24.90
2018-07-08T13:17:08.960Z,25.00
2018-07-08T13:19:37.357Z,24.91
2018-07-08T13:22:05.411Z,24.80
2018-07-08T13:24:33.460Z,24.92
2018-07-08T13:27:01.520Z,24.98
2018-07-08T13:29:30.396Z,24.95
2018-07-08T13:31:58.518Z,25.13
2018-07-08T13:34:27.441Z,25.22
2018-07-08T13:36:55.483Z,25.33
2018-07-08T13:39:23.705Z,25.30
2018-07-08T13:41:51.814Z,25.17
2018-07-08T13:44:19.863Z,25.24
2018-07-08T13:46:48.147Z,25.18
2018-07-08T13:49:16.255Z,24.92
2018-07-08T13:51:44.295Z,25.03
2018-07-08T13:54:12.928Z,24.98
2018-07-08T13:56:41.073Z,24.91
2018-07-08T13:59:09.116Z,24.85
2018-07-08T14:01:37.200Z,25.14
2018-07-08T14:04:05.654Z,25.13
2018-07-08T14:06:33.765Z,25.22
2018-07-08T14:09:01.862Z,25.21
2018-07-08T14:11:30.055Z,25.22
2018-07-08T14:13:58.098Z,25.28
2018-07-08T14:16:26.142Z,24.99
2018-07-08T14:18:54.192Z,25.11
2018-07-08T14:21:22.220Z,25.25
2018-07-08T14:23:50.235Z,25.26
2018-07-08T14:26:18.287Z,25.30
2018-07-08T14:28:46.340Z,25.48
2018-07-08T14:31:14.433Z,25.31
2018-07-08T14:33:42.437Z,25.51
2018-07-08T14:36:10.477Z,25.60
2018-07-08T14:38:38.815Z,25.71
2018-07-08T14:41:06.844Z,25.80
2018-07-08T14:43:34.900Z,25.62
2018-07-08T14:46:02.982Z,25.54
2018-07-08T14:48:31.015Z,25.48
2018-07-08T14:50:59.043Z,25.60
2018-07-08T14:53:27.092Z,25.69
2018-07-08T14:55:55.135Z,25.71
2018-07-08T14:58:23.784Z,25.53
2018-07-08T15:00:52.059Z,25.38
2018-07-08T15:03:20.498Z,25.57
2018-07-08T15:05:48.872Z,25.33
2018-07-08T15:08:16.956Z,25.39
2018-07-08T15:10:45.027Z,25.48
2018-07-08T15:13:13.428Z,25.41
2018-07-08T15:15:41.482Z,25.22
2018-07-08T15:18:09.591Z,25.37
2018-07-08T15:20:37.666Z,25.32
2018-07-08T15:23:05.712Z,25.28
2018-07-08T15:25:34.032Z,25.51
2018-07-08T15:28:02.060Z,25.41
2018-07-08T15:30:30.216Z,25.70
2018-07-08T15:32:58.372Z,25.79
2018-07-08T15:35:26.721Z,25.91
2018-07-08T15:37:54.928Z,25.82
2018-07-08T15:40:23.091Z,25.69
2018-07-08T15:42:51.381Z,25.73
2018-07-08T15:45:19.781Z,25.88
2018-07-08T15:47:48.248Z,26.04
2018-07-08T15:50:16.288Z,25.62
2018-07-08T15:52:44.320Z,25.75
2018-07-08T15:55:13.039Z,25.96
2018-07-08T15:57:41.082Z,26.02
2018-07-08T16:00:09.162Z,26.10
2018-07-08T16:02:37.275Z,26.23
2018-07-08T16:05:05.333Z,26.17
2018-07-08T16:07:33.443Z,26.11
2018-07-08T16:10:01.553Z,25.95
2018-07-08T16:12:29.595Z,25.89
2018-07-08T16:14:57.678Z,26.00
2018-07-08T16:17:25.730Z,25.85
2018-07-08T16:19:54.050Z,25.82
2018-07-08T16:22:22.123Z,25.71
2018-07-08T16:24:50.619Z,25.67
2018-07-08T16:27:18.676Z,25.56
2018-07-08T16:29:46.753Z,25.70
2018-07-08T16:32:14.815Z,25.77
2018-07-08T16:34:43.506Z,25.86
2018-07-08T16:37:11.546Z,25.84
2018-07-08T16:39:40.055Z,25.93
2018-07-08T16:42:08.256Z,26.04
2018-07-08T16:44:36.843Z,26.11
2018-07-08T16:47:04.946Z,25.83
2018-07-08T16:49:33.069Z,25.91
2018-07-08T16:52:01.195Z,25.95
2018-07-08T16:54:29.250Z,26.04
2018-07-08T16:56:57.967Z,25.85
2018-07-08T16:59:26.018Z,25.83
2018-07-08T17:01:54.106Z,25.78
2018-07-08T17:04:23.111Z,25.84
2018-07-08T17:06:51.179Z,25.81
2018-07-08T17:09:19.800Z,25.78
2018-07-08T17:11:47.899Z,25.51
2018-07-08T17:14:15.968Z,25.52
2018-07-08T17:16:44.172Z,25.61
2018-07-08T17:19:12.253Z,25.69
2018-07-08T17:21:40.479Z,25.54
2018-07-08T17:24:08.547Z,25.51
2018-07-08T17:26:37.021Z,25.36
2018-07-08T17:29:05.118Z,25.54
2018-07-08T17:31:33.179Z,25.37
2018-07-08T17:34:01.231Z,25.17
2018-07-08T17:36:29.315Z,25.27
2018-07-08T17:38:57.361Z,25.23
2018-07-08T17:41:25.434Z,25.33
2018-07-08T17:43:53.588Z,25.39
2018-07-08T17:46:22.449Z,25.37
2018-07-08T17:48:50.640Z,25.43
2018-07-08T17:51:18.669Z,25.14
2018-07-08T17:53:46.748Z,25.17
2018-07-08T17:56:15.292Z,25.00
2018-07-08T17:58:43.543Z,24.97
2018-07-08T18:01:11.600Z,24.93
2018-07-08T18:03:39.640Z,24.85
2018-07-08T18:06:07.923Z,24.74
2018-07-08T18:08:36.011Z,24.63
2018-07-08T18:11:04.039Z,24.61
2018-07-08T18:13:32.095Z,24.67
2018-07-08T18:16:00.160Z,24.63
2018-07-08T18:18:28.343Z,24.47
2018-07-08T18:20:56.441Z,24.41
2018-07-08T18:23:25.022Z,24.45
2018-07-08T18:25:53.838Z,24.33
2018-07-08T18:28:21.948Z,24.26
2018-07-08T18:30:51.058Z,24.13
2018-07-08T18:33:19.232Z,24.13
2018-07-08T18:35:47.415Z,24.05
2018-07-08T18:38:15.668Z,23.99
2018-07-08T18:40:43.840Z,23.97
2018-07-08T18:43:11.955Z,23.97
2018-07-08T18:45:40.029Z,23.81
2018-07-08T18:48:08.101Z,23.79
2018-07-08T18:50:36.192Z,23.77
2018-07-08T18:53:04.909Z,23.53
2018-07-08T18:55:33.248Z,23.58
2018-07-08T18:58:01.319Z,23.61
2018-07-08T19:00:30.296Z,23.60
2018-07-08T19:02:58.452Z,23.35
2018-07-08T19:05:26.635Z,23.19
2018-07-08T19:07:55.832Z,23.22
2018-07-08T19:10:24.784Z,23.19
2018-07-08T19:12:53.538Z,23.13
2018-07-08T19:15:21.588Z,23.01
2018-07-08T19:17:49.682Z,23.02
2018-07-08T19:20:17.979Z,22.88
2018-07-08T19:22:47.857Z,22.88
2018-07-08T19:25:16.300Z,22.89
2018-07-08T19:27:44.659Z,22.72
2018-07-08T19:30:12.776Z,22.62
2018-07-08T19:32:40.865Z,22.58
2018-07-08T19:35:09.840Z,22.42
2018-07-08T19:37:37.910Z,22.45
2018-07-08T19:40:05.987Z,22.36
2018-07-08T19:42:34.117Z,22.33
2018-07-08T19:45:02.492Z,22.22
2018-07-08T19:47:30.688Z,22.18
2018-07-08T19:49:58.751Z,22.17
2018-07-08T19:52:27.578Z,22.12
2018-07-08T19:55:02.693Z,22.06
2018-07-08T19:57:31.784Z,21.94
2018-07-08T19:59:59.835Z,21.87
2018-07-08T20:02:29.475Z,21.78
2018-07-08T20:04:57.816Z,21.68
2018-07-08T20:07:25.928Z,21.61
2018-07-08T20:09:54.045Z,21.53
2018-07-08T20:12:22.098Z,21.41
2018-07-08T20:14:50.308Z,21.42
2018-07-08T20:17:18.703Z,21.37
2018-07-08T20:19:47.855Z,21.25
2018-07-08T20:22:16.446Z,21.27
2018-07-08T20:24:44.865Z,21.15
2018-07-08T20:27:13.147Z,21.14
2018-07-08T20:29:41.288Z,21.08
2018-07-08T20:32:10.363Z,21.07
2018-07-08T20:34:38.803Z,21.06
2018-07-08T20:37:07.143Z,21.01
2018-07-08T20:39:35.209Z,20.91
2018-07-08T20:42:04.164Z,20.87
2018-07-08T20:44:32.263Z,20.83
2018-07-08T20:47:00.570Z,20.76
2018-07-08T20:49:28.773Z,20.72
2018-07-08T20:51:58.030Z,20.66
2018-07-08T20:54:26.323Z,20.59
2018-07-08T20:56:54.528Z,20.57
2018-07-08T20:59:22.799Z,20.52
2018-07-08T21:01:51.174Z,20.39
2018-07-08T21:04:19.851Z,20.31
2018-07-08T21:06:48.305Z,20.18
2018-07-08T21:09:16.804Z,20.09
2018-07-08T21:11:44.929Z,20.03
2018-07-08T21:14:13.441Z,19.84
2018-07-08T21:16:41.543Z,19.77
2018-07-08T21:19:09.632Z,19.76
2018-07-08T21:21:38.077Z,19.73
2018-07-08T21:24:06.421Z,19.74
2018-07-08T21:26:34.604Z,19.68
2018-07-08T21:29:03.860Z,19.46
2018-07-08T21:31:32.322Z,19.50
2018-07-08T21:34:00.417Z,19.52
2018-07-08T21:36:28.804Z,19.41
2018-07-08T21:38:56.871Z,19.31
2018-07-08T21:41:24.954Z,19.27
2018-07-08T21:43:53.081Z,19.17
2018-07-08T21:46:21.167Z,19.13
2018-07-08T21:48:49.237Z,19.05
2018-07-08T21:51:17.435Z,18.94
2018-07-08T21:53:45.521Z,18.98
2018-07-08T21:56:14.226Z,18.99
2018-07-08T21:58:42.295Z,18.93
2018-07-08T22:01:20.519Z,18.89
2018-07-08T22:03:48.913Z,18.86
2018-07-08T22:06:17.777Z,18.80
2018-07-08T22:08:46.034Z,18.79
2018-07-08T22:11:14.122Z,18.77
2018-07-08T22:13:42.953Z,18.75
2018-07-08T22:16:11.072Z,18.70
2018-07-08T22:18:39.319Z,18.66
2018-07-08T22:21:08.325Z,18.62
2018-07-08T22:23:36.679Z,18.59
2018-07-08T22:26:04.894Z,18.56
2018-07-08T22:28:33.823Z,18.51
2018-07-08T22:31:02.236Z,18.49
2018-07-08T22:33:31.396Z,18.46
2018-07-08T22:35:59.636Z,18.39
2018-07-08T22:38:27.930Z,18.26
2018-07-08T22:40:58.929Z,18.28
2018-07-08T22:43:27.702Z,18.25
2018-07-08T22:45:56.464Z,18.23
2018-07-08T22:48:24.668Z,18.19
2018-07-08T22:50:53.087Z,18.17
2018-07-08T22:53:21.715Z,18.13
2018-07-08T22:55:50.089Z,18.08
2018-07-08T22:58:18.593Z,18.06
2018-07-08T23:00:58.106Z,18.03
2018-07-08T23:03:48.055Z,17.99
2018-07-08T23:06:17.109Z,17.93
2018-07-08T23:08:45.446Z,17.89
2018-07-08T23:11:14.094Z,17.86
2018-07-08T23:13:42.385Z,17.81
2018-07-08T23:16:10.639Z,17.78
2018-07-08T23:18:38.733Z,17.73
2018-07-08T23:21:06.973Z,17.66
2018-07-08T23:23:35.105Z,17.61
2018-07-08T23:26:03.288Z,17.58
2018-07-08T23:28:32.338Z,17.52
2018-07-08T23:31:00.388Z,17.47
2018-07-08T23:33:28.655Z,17.45
2018-07-08T23:35:56.988Z,17.41
2018-07-08T23:38:25.155Z,17.39
2018-07-08T23:40:53.511Z,17.38
2018-07-08T23:43:21.877Z,17.37
2018-07-08T23:45:50.095Z,17.36
2018-07-08T23:48:18.305Z,17.33
2018-07-08T23:50:46.491Z,17.29
2018-07-08T23:53:14.920Z,17.24
2018-07-08T23:55:42.988Z,17.22
2018-07-08T23:58:11.036Z,17.14
